sensor_id;sensor_type;location;lat;lon;timestamp;pressure;altitude;pressure_sealevel;temperature;humidity
86272;BME280;76930;50.692;16.628;2024-03-06T00:00:41;98314.52;;;5.70;65.92
86272;BME280;76930;50.692;16.628;2024-03-06T00:03:09;98315.77;;;5.70;65.79
86272;BME280;76930;50.692;16.628;2024-03-06T00:05:37;98318.88;;;5.72;65.85
86272;BME280;76930;50.692;16.628;2024-03-06T00:08:04;98322.50;;;5.76;66.02
86272;BME280;76930;50.692;16.628;2024-03-06T00:10:32;98326.63;;;5.77;65.99
86272;BME280;76930;50.692;16.628;2024-03-06T00:12:59;98327.54;;;5.80;65.94
86272;BME280;76930;50.692;16.628;2024-03-06T00:15:27;98331.52;;;5.81;66.05
86272;BME280;76930;50.692;16.628;2024-03-06T00:17:55;98329.37;;;5.78;65.92
86272;BME280;76930;50.692;16.628;2024-03-06T00:20:22;98329.38;;;5.76;65.96
86272;BME280;76930;50.692;16.628;2024-03-06T00:22:49;98329.45;;;5.72;65.81
86272;BME280;76930;50.692;16.628;2024-03-06T00:25:17;98332.70;;;5.71;65.78
86272;BME280;76930;50.692;16.628;2024-03-06T00:27:44;98337.14;;;5.76;65.76
86272;BME280;76930;50.692;16.628;2024-03-06T00:30:11;98341.77;;;5.81;65.60
86272;BME280;76930;50.692;16.628;2024-03-06T00:32:38;98342.96;;;5.84;65.54
86272;BME280;76930;50.692;16.628;2024-03-06T00:35:06;98343.73;;;5.88;65.65
86272;BME280;76930;50.692;16.628;2024-03-06T00:37:33;98343.86;;;5.89;65.64
86272;BME280;76930;50.692;16.628;2024-03-06T00:40:00;98348.14;;;5.88;65.81
86272;BME280;76930;50.692;16.628;2024-03-06T00:42:28;98345.61;;;5.86;65.84
86272;BME280;76930;50.692;16.628;2024-03-06T00:44:55;98344.66;;;5.85;65.90
86272;BME280;76930;50.692;16.628;2024-03-06T00:47:23;98347.52;;;5.82;66.20
86272;BME280;76930;50.692;16.628;2024-03-06T00:49:50;98353.19;;;5.79;66.35
86272;BME280;76930;50.692;16.628;2024-03-06T00:52:17;98353.06;;;5.67;66.51
86272;BME280;76930;50.692;16.628;2024-03-06T00:54:44;98350.97;;;5.59;66.87
86272;BME280;76930;50.692;16.628;2024-03-06T00:57:12;98354.30;;;5.54;66.88
86272;BME280;76930;50.692;16.628;2024-03-06T00:59:38;98357.84;;;5.51;67.13
86272;BME280;76930;50.692;16.628;2024-03-06T01:02:05;98357.02;;;5.53;67.24
86272;BME280;76930;50.692;16.628;2024-03-06T01:04:33;98352.23;;;5.56;67.20
86272;BME280;76930;50.692;16.628;2024-03-06T01:07:01;98351.14;;;5.56;67.33
86272;BME280;76930;50.692;16.628;2024-03-06T01:09:28;98349.74;;;5.53;67.26
86272;BME280;76930;50.692;16.628;2024-03-06T01:11:56;98353.16;;;5.52;67.41
86272;BME280;76930;50.692;16.628;2024-03-06T01:14:23;98352.92;;;5.54;67.55
86272;BME280;76930;50.692;16.628;2024-03-06T01:16:50;98350.09;;;5.56;67.55
86272;BME280;76930;50.692;16.628;2024-03-06T01:19:20;98349.94;;;5.58;67.41
86272;BME280;76930;50.692;16.628;2024-03-06T01:21:47;98348.01;;;5.61;67.57
86272;BME280;76930;50.692;16.628;2024-03-06T01:24:15;98346.78;;;5.66;67.45
86272;BME280;76930;50.692;16.628;2024-03-06T01:26:42;98352.31;;;5.68;67.31
86272;BME280;76930;50.692;16.628;2024-03-06T01:29:10;98350.14;;;5.63;67.27
86272;BME280;76930;50.692;16.628;2024-03-06T01:31:37;98350.12;;;5.64;67.47
86272;BME280;76930;50.692;16.628;2024-03-06T01:34:05;98348.11;;;5.65;67.58
86272;BME280;76930;50.692;16.628;2024-03-06T01:36:32;98351.86;;;5.66;67.52
86272;BME280;76930;50.692;16.628;2024-03-06T01:39:00;98350.38;;;5.68;67.51
86272;BME280;76930;50.692;16.628;2024-03-06T01:41:27;98356.23;;;5.67;67.31
86272;BME280;76930;50.692;16.628;2024-03-06T01:43:54;98359.00;;;5.66;67.39
86272;BME280;76930;50.692;16.628;2024-03-06T01:46:22;98358.77;;;5.63;67.34
86272;BME280;76930;50.692;16.628;2024-03-06T01:48:50;98356.52;;;5.60;67.35
86272;BME280;76930;50.692;16.628;2024-03-06T01:51:17;98357.59;;;5.57;67.57
86272;BME280;76930;50.692;16.628;2024-03-06T01:53:47;98359.95;;;5.59;67.73
86272;BME280;76930;50.692;16.628;2024-03-06T01:56:15;98355.45;;;5.58;67.64
86272;BME280;76930;50.692;16.628;2024-03-06T01:58:45;98357.80;;;5.57;67.73
86272;BME280;76930;50.692;16.628;2024-03-06T02:01:16;98355.11;;;5.55;67.68
86272;BME280;76930;50.692;16.628;2024-03-06T02:03:44;98357.74;;;5.55;67.88
86272;BME280;76930;50.692;16.628;2024-03-06T02:06:13;98357.81;;;5.54;67.77
86272;BME280;76930;50.692;16.628;2024-03-06T02:08:41;98359.54;;;5.55;68.12
86272;BME280;76930;50.692;16.628;2024-03-06T02:11:09;98363.39;;;5.55;68.10
86272;BME280;76930;50.692;16.628;2024-03-06T02:13:36;98360.55;;;5.55;68.04
86272;BME280;76930;50.692;16.628;2024-03-06T02:16:04;98358.34;;;5.54;67.79
86272;BME280;76930;50.692;16.628;2024-03-06T02:18:31;98365.31;;;5.55;67.99
86272;BME280;76930;50.692;16.628;2024-03-06T02:20:58;98367.08;;;5.55;68.03
86272;BME280;76930;50.692;16.628;2024-03-06T02:23:26;98367.46;;;5.55;68.14
86272;BME280;76930;50.692;16.628;2024-03-06T02:25:54;98365.14;;;5.53;67.99
86272;BME280;76930;50.692;16.628;2024-03-06T02:28:21;98363.92;;;5.47;67.96
86272;BME280;76930;50.692;16.628;2024-03-06T02:30:52;98367.92;;;5.42;68.18
86272;BME280;76930;50.692;16.628;2024-03-06T02:33:21;98367.53;;;5.40;68.38
86272;BME280;76930;50.692;16.628;2024-03-06T02:35:48;98366.27;;;5.38;68.52
86272;BME280;76930;50.692;16.628;2024-03-06T02:38:16;98366.95;;;5.35;68.58
86272;BME280;76930;50.692;16.628;2024-03-06T02:40:44;98363.35;;;5.31;68.47
86272;BME280;76930;50.692;16.628;2024-03-06T02:43:12;98368.64;;;5.28;68.52
86272;BME280;76930;50.692;16.628;2024-03-06T02:45:39;98369.05;;;5.27;68.46
86272;BME280;76930;50.692;16.628;2024-03-06T02:48:08;98371.73;;;5.32;68.34
86272;BME280;76930;50.692;16.628;2024-03-06T02:50:36;98374.30;;;5.37;68.29
86272;BME280;76930;50.692;16.628;2024-03-06T02:53:03;98378.33;;;5.37;68.21
86272;BME280;76930;50.692;16.628;2024-03-06T02:55:30;98378.41;;;5.38;68.25
86272;BME280;76930;50.692;16.628;2024-03-06T02:58:01;98378.35;;;5.42;68.21
86272;BME280;76930;50.692;16.628;2024-03-06T03:00:29;98376.38;;;5.45;68.40
86272;BME280;76930;50.692;16.628;2024-03-06T03:03:00;98379.09;;;5.44;68.43
86272;BME280;76930;50.692;16.628;2024-03-06T03:05:27;98379.17;;;5.43;68.25
86272;BME280;76930;50.692;16.628;2024-03-06T03:07:55;98379.68;;;5.40;68.12
86272;BME280;76930;50.692;16.628;2024-03-06T03:10:22;98376.86;;;5.38;68.35
86272;BME280;76930;50.692;16.628;2024-03-06T03:12:51;98379.44;;;5.36;68.51
86272;BME280;76930;50.692;16.628;2024-03-06T03:15:19;98378.36;;;5.37;68.45
86272;BME280;76930;50.692;16.628;2024-03-06T03:17:46;98379.39;;;5.39;68.60
86272;BME280;76930;50.692;16.628;2024-03-06T03:20:13;98380.73;;;5.43;68.70
86272;BME280;76930;50.692;16.628;2024-03-06T03:22:41;98384.71;;;5.45;68.71
86272;BME280;76930;50.692;16.628;2024-03-06T03:25:10;98385.79;;;5.44;68.51
86272;BME280;76930;50.692;16.628;2024-03-06T03:27:40;98384.14;;;5.42;68.59
86272;BME280;76930;50.692;16.628;2024-03-06T03:30:13;98385.88;;;5.43;68.62
86272;BME280;76930;50.692;16.628;2024-03-06T03:32:40;98385.68;;;5.43;68.75
86272;BME280;76930;50.692;16.628;2024-03-06T03:35:07;98390.66;;;5.42;68.57
86272;BME280;76930;50.692;16.628;2024-03-06T03:37:35;98392.83;;;5.42;68.72
86272;BME280;76930;50.692;16.628;2024-03-06T03:40:02;98394.09;;;5.41;68.75
86272;BME280;76930;50.692;16.628;2024-03-06T03:42:30;98391.80;;;5.41;68.48
86272;BME280;76930;50.692;16.628;2024-03-06T03:44:57;98395.68;;;5.41;68.80
86272;BME280;76930;50.692;16.628;2024-03-06T03:47:24;98396.73;;;5.44;68.72
86272;BME280;76930;50.692;16.628;2024-03-06T03:49:51;98395.52;;;5.47;68.62
86272;BME280;76930;50.692;16.628;2024-03-06T03:52:35;98395.65;;;5.47;68.54
86272;BME280;76930;50.692;16.628;2024-03-06T03:55:12;98397.13;;;5.46;68.49
86272;BME280;76930;50.692;16.628;2024-03-06T03:57:39;98401.27;;;5.48;68.49
86272;BME280;76930;50.692;16.628;2024-03-06T04:00:06;98403.35;;;5.48;68.62
86272;BME280;76930;50.692;16.628;2024-03-06T04:02:38;98405.04;;;5.49;68.55
86272;BME280;76930;50.692;16.628;2024-03-06T04:05:06;98406.77;;;5.50;68.54
86272;BME280;76930;50.692;16.628;2024-03-06T04:07:33;98410.24;;;5.48;68.45
86272;BME280;76930;50.692;16.628;2024-03-06T04:10:04;98404.30;;;5.45;68.53
86272;BME280;76930;50.692;16.628;2024-03-06T04:12:31;98401.87;;;5.41;68.70
86272;BME280;76930;50.692;16.628;2024-03-06T04:14:58;98403.46;;;5.38;68.80
86272;BME280;76930;50.692;16.628;2024-03-06T04:17:27;98405.59;;;5.36;68.96
86272;BME280;76930;50.692;16.628;2024-03-06T04:19:55;98401.23;;;5.35;68.86
86272;BME280;76930;50.692;16.628;2024-03-06T04:22:23;98401.39;;;5.35;69.01
86272;BME280;76930;50.692;16.628;2024-03-06T04:24:50;98405.11;;;5.38;69.07
86272;BME280;76930;50.692;16.628;2024-03-06T04:27:18;98406.77;;;5.39;69.20
86272;BME280;76930;50.692;16.628;2024-03-06T04:29:45;98406.71;;;5.40;69.28
86272;BME280;76930;50.692;16.628;2024-03-06T04:32:12;98414.10;;;5.40;69.09
86272;BME280;76930;50.692;16.628;2024-03-06T04:34:39;98416.65;;;5.39;69.15
86272;BME280;76930;50.692;16.628;2024-03-06T04:37:07;98421.15;;;5.41;69.04
86272;BME280;76930;50.692;16.628;2024-03-06T04:39:35;98421.61;;;5.39;69.03
86272;BME280;76930;50.692;16.628;2024-03-06T04:42:02;98421.54;;;5.37;69.05
86272;BME280;76930;50.692;16.628;2024-03-06T04:44:36;98422.36;;;5.33;68.99
86272;BME280;76930;50.692;16.628;2024-03-06T04:47:04;98420.36;;;5.28;69.37
86272;BME280;76930;50.692;16.628;2024-03-06T04:49:34;98421.87;;;5.29;69.38
86272;BME280;76930;50.692;16.628;2024-03-06T04:52:05;98426.23;;;5.30;69.42
86272;BME280;76930;50.692;16.628;2024-03-06T04:54:32;98430.30;;;5.29;69.43
86272;BME280;76930;50.692;16.628;2024-03-06T04:57:00;98433.57;;;5.31;69.50
86272;BME280;76930;50.692;16.628;2024-03-06T04:59:27;98435.42;;;5.35;69.46
86272;BME280;76930;50.692;16.628;2024-03-06T05:01:55;98441.07;;;5.35;69.40
86272;BME280;76930;50.692;16.628;2024-03-06T05:04:22;98440.14;;;5.34;69.40
86272;BME280;76930;50.692;16.628;2024-03-06T05:07:02;98442.82;;;5.33;69.45
86272;BME280;76930;50.692;16.628;2024-03-06T05:09:43;98445.17;;;5.29;69.64
86272;BME280;76930;50.692;16.628;2024-03-06T05:12:24;98450.84;;;5.26;69.70
86272;BME280;76930;50.692;16.628;2024-03-06T05:15:05;98448.85;;;5.21;69.77
86272;BME280;76930;50.692;16.628;2024-03-06T05:17:46;98457.48;;;5.09;70.13
86272;BME280;76930;50.692;16.628;2024-03-06T05:20:28;98458.71;;;5.01;70.28
86272;BME280;76930;50.692;16.628;2024-03-06T05:23:11;98464.38;;;4.98;70.30
86272;BME280;76930;50.692;16.628;2024-03-06T05:25:53;98461.27;;;4.97;70.40
86272;BME280;76930;50.692;16.628;2024-03-06T05:28:33;98462.80;;;4.98;70.34
86272;BME280;76930;50.692;16.628;2024-03-06T05:31:19;98465.46;;;5.00;70.60
86272;BME280;76930;50.692;16.628;2024-03-06T05:33:59;98463.79;;;5.02;70.44
86272;BME280;76930;50.692;16.628;2024-03-06T05:36:41;98465.40;;;4.96;70.43
86272;BME280;76930;50.692;16.628;2024-03-06T05:39:21;98466.95;;;4.90;70.53
86272;BME280;76930;50.692;16.628;2024-03-06T05:42:04;98467.42;;;4.85;70.68
86272;BME280;76930;50.692;16.628;2024-03-06T05:44:45;98467.33;;;4.81;70.77
86272;BME280;76930;50.692;16.628;2024-03-06T05:47:25;98473.16;;;4.81;70.83
86272;BME280;76930;50.692;16.628;2024-03-06T05:50:07;98479.55;;;4.80;71.08
86272;BME280;76930;50.692;16.628;2024-03-06T05:52:48;98481.82;;;4.81;70.82
86272;BME280;76930;50.692;16.628;2024-03-06T05:55:28;98484.02;;;4.82;70.98
86272;BME280;76930;50.692;16.628;2024-03-06T05:58:09;98488.50;;;4.78;71.11
86272;BME280;76930;50.692;16.628;2024-03-06T06:00:41;98491.30;;;4.72;71.12
86272;BME280;76930;50.692;16.628;2024-03-06T06:03:10;98494.41;;;4.70;71.22
86272;BME280;76930;50.692;16.628;2024-03-06T06:05:40;98494.16;;;4.68;71.53
86272;BME280;76930;50.692;16.628;2024-03-06T06:08:08;98493.98;;;4.68;71.41
86272;BME280;76930;50.692;16.628;2024-03-06T06:10:37;98493.35;;;4.68;71.44
86272;BME280;76930;50.692;16.628;2024-03-06T06:13:04;98494.82;;;4.64;71.47
86272;BME280;76930;50.692;16.628;2024-03-06T06:15:32;98496.98;;;4.63;71.59
86272;BME280;76930;50.692;16.628;2024-03-06T06:17:59;98499.48;;;4.59;71.62
86272;BME280;76930;50.692;16.628;2024-03-06T06:20:27;98494.56;;;4.59;71.63
86272;BME280;76930;50.692;16.628;2024-03-06T06:22:55;98499.34;;;4.59;71.67
86272;BME280;76930;50.692;16.628;2024-03-06T06:25:22;98503.83;;;4.60;71.76
86272;BME280;76930;50.692;16.628;2024-03-06T06:27:49;98503.45;;;4.64;71.68
86272;BME280;76930;50.692;16.628;2024-03-06T06:30:16;98509.08;;;4.64;71.38
86272;BME280;76930;50.692;16.628;2024-03-06T06:32:44;98512.70;;;4.65;71.57
86272;BME280;76930;50.692;16.628;2024-03-06T06:35:11;98515.14;;;4.66;71.49
86272;BME280;76930;50.692;16.628;2024-03-06T06:37:42;98513.14;;;4.64;71.48
86272;BME280;76930;50.692;16.628;2024-03-06T06:40:10;98510.42;;;4.68;71.44
86272;BME280;76930;50.692;16.628;2024-03-06T06:42:48;98516.61;;;4.77;71.30
86272;BME280;76930;50.692;16.628;2024-03-06T06:45:20;98517.35;;;4.82;71.11
86272;BME280;76930;50.692;16.628;2024-03-06T06:47:51;98520.27;;;4.83;70.81
86272;BME280;76930;50.692;16.628;2024-03-06T06:50:18;98522.83;;;4.85;70.73
86272;BME280;76930;50.692;16.628;2024-03-06T06:52:48;98522.64;;;4.88;70.83
86272;BME280;76930;50.692;16.628;2024-03-06T06:55:16;98521.06;;;5.00;70.77
86272;BME280;76930;50.692;16.628;2024-03-06T06:57:44;98522.98;;;5.08;70.42
86272;BME280;76930;50.692;16.628;2024-03-06T07:00:11;98521.81;;;5.19;69.97
86272;BME280;76930;50.692;16.628;2024-03-06T07:02:42;98518.96;;;5.25;69.43
86272;BME280;76930;50.692;16.628;2024-03-06T07:05:10;98519.96;;;5.35;69.24
86272;BME280;76930;50.692;16.628;2024-03-06T07:07:38;98523.29;;;5.47;69.30
86272;BME280;76930;50.692;16.628;2024-03-06T07:10:06;98526.73;;;5.54;68.51
86272;BME280;76930;50.692;16.628;2024-03-06T07:12:36;98522.21;;;5.64;68.24
86272;BME280;76930;50.692;16.628;2024-03-06T07:15:04;98531.45;;;5.80;67.90
86272;BME280;76930;50.692;16.628;2024-03-06T07:17:31;98528.79;;;5.97;67.71
86272;BME280;76930;50.692;16.628;2024-03-06T07:19:59;98532.67;;;6.17;67.03
86272;BME280;76930;50.692;16.628;2024-03-06T07:22:26;98531.95;;;6.30;66.43
86272;BME280;76930;50.692;16.628;2024-03-06T07:24:53;98534.20;;;6.40;65.18
86272;BME280;76930;50.692;16.628;2024-03-06T07:27:20;98539.14;;;6.42;65.15
86272;BME280;76930;50.692;16.628;2024-03-06T07:29:50;98541.32;;;6.47;64.63
86272;BME280;76930;50.692;16.628;2024-03-06T07:32:17;98540.98;;;6.49;64.41
86272;BME280;76930;50.692;16.628;2024-03-06T07:34:44;98539.05;;;6.54;64.10
86272;BME280;76930;50.692;16.628;2024-03-06T07:37:12;98542.73;;;6.52;63.25
86272;BME280;76930;50.692;16.628;2024-03-06T07:39:41;98547.33;;;6.44;63.40
86272;BME280;76930;50.692;16.628;2024-03-06T07:42:08;98550.77;;;6.37;62.85
86272;BME280;76930;50.692;16.628;2024-03-06T07:44:37;98547.97;;;6.40;61.97
86272;BME280;76930;50.692;16.628;2024-03-06T07:47:04;98550.56;;;6.38;60.92
86272;BME280;76930;50.692;16.628;2024-03-06T07:49:31;98549.60;;;6.36;61.30
86272;BME280;76930;50.692;16.628;2024-03-06T07:51:59;98555.52;;;6.38;61.09
86272;BME280;76930;50.692;16.628;2024-03-06T07:54:26;98555.60;;;6.36;60.63
86272;BME280;76930;50.692;16.628;2024-03-06T07:56:54;98558.77;;;6.34;59.91
86272;BME280;76930;50.692;16.628;2024-03-06T07:59:21;98560.02;;;6.37;60.87
86272;BME280;76930;50.692;16.628;2024-03-06T08:01:48;98566.84;;;6.43;61.05
86272;BME280;76930;50.692;16.628;2024-03-06T08:04:15;98569.89;;;6.45;61.18
86272;BME280;76930;50.692;16.628;2024-03-06T08:06:42;98570.47;;;6.49;61.13
86272;BME280;76930;50.692;16.628;2024-03-06T08:09:09;98569.38;;;6.61;60.59
86272;BME280;76930;50.692;16.628;2024-03-06T08:11:37;98572.98;;;6.73;60.54
86272;BME280;76930;50.692;16.628;2024-03-06T08:14:06;98569.40;;;6.87;60.89
86272;BME280;76930;50.692;16.628;2024-03-06T08:16:33;98574.23;;;7.05;61.02
86272;BME280;76930;50.692;16.628;2024-03-06T08:19:03;98577.73;;;7.26;60.64
86272;BME280;76930;50.692;16.628;2024-03-06T08:21:31;98580.68;;;7.45;60.53
86272;BME280;76930;50.692;16.628;2024-03-06T08:23:58;98578.01;;;7.61;60.53
86272;BME280;76930;50.692;16.628;2024-03-06T08:26:26;98578.80;;;7.72;59.69
86272;BME280;76930;50.692;16.628;2024-03-06T08:28:56;98587.70;;;7.71;59.39
86272;BME280;76930;50.692;16.628;2024-03-06T08:31:23;98587.05;;;7.66;59.20
86272;BME280;76930;50.692;16.628;2024-03-06T08:33:50;98588.03;;;7.59;58.63
86272;BME280;76930;50.692;16.628;2024-03-06T08:36:17;98586.10;;;7.51;57.95
86272;BME280;76930;50.692;16.628;2024-03-06T08:38:44;98590.18;;;7.43;56.99
86272;BME280;76930;50.692;16.628;2024-03-06T08:41:12;98594.20;;;7.39;56.58
86272;BME280;76930;50.692;16.628;2024-03-06T08:43:45;98590.56;;;7.33;56.30
86272;BME280;76930;50.692;16.628;2024-03-06T08:46:13;98591.41;;;7.20;55.72
86272;BME280;76930;50.692;16.628;2024-03-06T08:48:41;98595.38;;;7.14;56.55
86272;BME280;76930;50.692;16.628;2024-03-06T08:51:08;98595.41;;;7.13;56.90
86272;BME280;76930;50.692;16.628;2024-03-06T08:53:39;98596.84;;;7.21;56.48
86272;BME280;76930;50.692;16.628;2024-03-06T08:56:07;98592.65;;;7.51;56.63
86272;BME280;76930;50.692;16.628;2024-03-06T08:58:34;98595.15;;;7.76;55.93
86272;BME280;76930;50.692;16.628;2024-03-06T09:01:01;98595.64;;;7.94;55.63
86272;BME280;76930;50.692;16.628;2024-03-06T09:03:28;98593.85;;;8.07;55.06
86272;BME280;76930;50.692;16.628;2024-03-06T09:05:55;98599.38;;;8.14;54.56
86272;BME280;76930;50.692;16.628;2024-03-06T09:08:23;98598.04;;;8.16;54.52
86272;BME280;76930;50.692;16.628;2024-03-06T09:10:50;98595.61;;;8.12;54.18
86272;BME280;76930;50.692;16.628;2024-03-06T09:13:17;98597.45;;;8.11;53.91
86272;BME280;76930;50.692;16.628;2024-03-06T09:15:44;98598.77;;;8.13;54.10
86272;BME280;76930;50.692;16.628;2024-03-06T09:18:13;98600.33;;;8.16;53.90
86272;BME280;76930;50.692;16.628;2024-03-06T09:20:41;98603.48;;;8.07;53.73
86272;BME280;76930;50.692;16.628;2024-03-06T09:23:09;98596.89;;;7.97;53.68
86272;BME280;76930;50.692;16.628;2024-03-06T09:25:36;98596.98;;;8.01;53.93
86272;BME280;76930;50.692;16.628;2024-03-06T09:28:03;98601.92;;;8.08;53.57
86272;BME280;76930;50.692;16.628;2024-03-06T09:30:32;98601.21;;;8.18;53.67
86272;BME280;76930;50.692;16.628;2024-03-06T09:32:59;98601.05;;;8.30;53.50
86272;BME280;76930;50.692;16.628;2024-03-06T09:35:26;98605.18;;;8.37;53.25
86272;BME280;76930;50.692;16.628;2024-03-06T09:37:53;98606.17;;;8.35;52.42
86272;BME280;76930;50.692;16.628;2024-03-06T09:40:22;98604.91;;;8.31;52.00
86272;BME280;76930;50.692;16.628;2024-03-06T09:42:50;98606.73;;;8.23;52.06
86272;BME280;76930;50.692;16.628;2024-03-06T09:45:18;98605.95;;;8.12;52.12
86272;BME280;76930;50.692;16.628;2024-03-06T09:47:47;98607.23;;;7.99;51.08
86272;BME280;76930;50.692;16.628;2024-03-06T09:50:18;98610.58;;;7.84;50.54
86272;BME280;76930;50.692;16.628;2024-03-06T09:52:50;98608.54;;;7.72;51.52
86272;BME280;76930;50.692;16.628;2024-03-06T09:55:25;98609.95;;;7.72;52.25
86272;BME280;76930;50.692;16.628;2024-03-06T09:57:53;98609.11;;;7.77;52.45
86272;BME280;76930;50.692;16.628;2024-03-06T10:00:21;98605.23;;;7.84;52.52
86272;BME280;76930;50.692;16.628;2024-03-06T10:02:51;98609.58;;;7.96;52.44
86272;BME280;76930;50.692;16.628;2024-03-06T10:05:22;98608.34;;;8.05;52.52
86272;BME280;76930;50.692;16.628;2024-03-06T10:07:50;98610.98;;;8.18;51.59
86272;BME280;76930;50.692;16.628;2024-03-06T10:10:19;98612.20;;;8.21;51.41
86272;BME280;76930;50.692;16.628;2024-03-06T10:12:46;98609.20;;;8.23;51.34
86272;BME280;76930;50.692;16.628;2024-03-06T10:15:15;98606.48;;;8.29;50.66
86272;BME280;76930;50.692;16.628;2024-03-06T10:17:42;98603.96;;;8.24;50.57
86272;BME280;76930;50.692;16.628;2024-03-06T10:20:22;98603.91;;;8.23;51.10
86272;BME280;76930;50.692;16.628;2024-03-06T10:22:51;98599.25;;;8.26;51.35
86272;BME280;76930;50.692;16.628;2024-03-06T10:25:25;98599.31;;;8.30;51.13
86272;BME280;76930;50.692;16.628;2024-03-06T10:28:08;98600.52;;;8.28;51.12
86272;BME280;76930;50.692;16.628;2024-03-06T10:30:38;98606.23;;;8.25;50.73
86272;BME280;76930;50.692;16.628;2024-03-06T10:33:14;98605.59;;;8.24;51.71
86272;BME280;76930;50.692;16.628;2024-03-06T10:35:43;98609.07;;;8.23;52.57
86272;BME280;76930;50.692;16.628;2024-03-06T10:38:12;98612.00;;;8.16;52.33
86272;BME280;76930;50.692;16.628;2024-03-06T10:40:41;98612.30;;;8.05;51.77
86272;BME280;76930;50.692;16.628;2024-03-06T10:43:11;98612.40;;;7.95;51.81
86272;BME280;76930;50.692;16.628;2024-03-06T10:48:07;98612.98;;;7.80;51.27
86272;BME280;76930;50.692;16.628;2024-03-06T10:50:34;98614.87;;;7.75;50.96
86272;BME280;76930;50.692;16.628;2024-03-06T10:53:09;98617.98;;;7.77;50.78
86272;BME280;76930;50.692;16.628;2024-03-06T10:55:43;98618.35;;;7.84;49.51
86272;BME280;76930;50.692;16.628;2024-03-06T10:58:12;98616.88;;;7.90;49.57
86272;BME280;76930;50.692;16.628;2024-03-06T11:00:41;98613.57;;;7.89;49.23
86272;BME280;76930;50.692;16.628;2024-03-06T11:03:09;98609.07;;;7.90;49.77
86272;BME280;76930;50.692;16.628;2024-03-06T11:05:40;98613.46;;;7.95;49.28
86272;BME280;76930;50.692;16.628;2024-03-06T11:08:08;98612.52;;;8.04;49.36
86272;BME280;76930;50.692;16.628;2024-03-06T11:10:36;98609.63;;;8.12;48.82
86272;BME280;76930;50.692;16.628;2024-03-06T11:15:48;98607.82;;;8.13;49.16
86272;BME280;76930;50.692;16.628;2024-03-06T11:23:31;98599.69;;;8.34;48.30
86272;BME280;76930;50.692;16.628;2024-03-06T11:26:03;98594.71;;;8.34;48.14
86272;BME280;76930;50.692;16.628;2024-03-06T11:28:36;98596.71;;;8.34;48.93
86272;BME280;76930;50.692;16.628;2024-03-06T11:31:06;98598.41;;;8.30;48.46
86272;BME280;76930;50.692;16.628;2024-03-06T11:36:23;98597.48;;;8.16;49.53
86272;BME280;76930;50.692;16.628;2024-03-06T11:41:24;98593.29;;;8.08;48.62
86272;BME280;76930;50.692;16.628;2024-03-06T11:43:53;98592.75;;;8.05;48.55
86272;BME280;76930;50.692;16.628;2024-03-06T11:46:23;98592.13;;;8.02;48.60
86272;BME280;76930;50.692;16.628;2024-03-06T11:51:41;98591.51;;;7.93;48.30
86272;BME280;76930;50.692;16.628;2024-03-06T11:54:10;98588.38;;;7.87;48.64
86272;BME280;76930;50.692;16.628;2024-03-06T11:56:39;98590.97;;;7.83;49.19
86272;BME280;76930;50.692;16.628;2024-03-06T11:59:07;98595.63;;;7.80;49.43
86272;BME280;76930;50.692;16.628;2024-03-06T12:01:35;98599.90;;;7.80;49.09
86272;BME280;76930;50.692;16.628;2024-03-06T12:04:04;98594.61;;;7.74;48.85
86272;BME280;76930;50.692;16.628;2024-03-06T12:06:33;98592.05;;;7.65;48.90
86272;BME280;76930;50.692;16.628;2024-03-06T12:09:01;98593.84;;;7.57;49.71
86272;BME280;76930;50.692;16.628;2024-03-06T12:11:29;98590.91;;;7.58;50.75
86272;BME280;76930;50.692;16.628;2024-03-06T12:13:58;98583.66;;;7.66;50.86
86272;BME280;76930;50.692;16.628;2024-03-06T12:16:26;98587.36;;;7.79;50.91
86272;BME280;76930;50.692;16.628;2024-03-06T12:18:59;98588.95;;;7.89;50.72
86272;BME280;76930;50.692;16.628;2024-03-06T12:21:33;98590.56;;;7.96;50.32
86272;BME280;76930;50.692;16.628;2024-03-06T12:24:05;98589.98;;;7.95;48.84
86272;BME280;76930;50.692;16.628;2024-03-06T12:26:33;98590.48;;;7.87;48.65
86272;BME280;76930;50.692;16.628;2024-03-06T12:29:10;98587.34;;;7.82;49.21
86272;BME280;76930;50.692;16.628;2024-03-06T12:31:38;98592.70;;;7.81;49.46
86272;BME280;76930;50.692;16.628;2024-03-06T12:34:13;98587.19;;;7.82;49.37
86272;BME280;76930;50.692;16.628;2024-03-06T12:37:10;98587.94;;;7.86;49.23
86272;BME280;76930;50.692;16.628;2024-03-06T12:39:38;98586.56;;;7.90;50.12
86272;BME280;76930;50.692;16.628;2024-03-06T12:42:11;98588.42;;;7.94;49.84
86272;BME280;76930;50.692;16.628;2024-03-06T12:44:40;98589.87;;;7.91;49.16
86272;BME280;76930;50.692;16.628;2024-03-06T12:47:08;98587.77;;;7.88;48.89
86272;BME280;76930;50.692;16.628;2024-03-06T12:49:37;98585.48;;;7.88;49.37
86272;BME280;76930;50.692;16.628;2024-03-06T12:52:05;98586.97;;;7.89;49.77
86272;BME280;76930;50.692;16.628;2024-03-06T12:54:32;98586.31;;;7.89;49.58
86272;BME280;76930;50.692;16.628;2024-03-06T12:57:00;98583.20;;;7.85;50.91
86272;BME280;76930;50.692;16.628;2024-03-06T12:59:27;98583.52;;;7.86;51.70
86272;BME280;76930;50.692;16.628;2024-03-06T13:01:55;98580.45;;;7.86;52.15
86272;BME280;76930;50.692;16.628;2024-03-06T13:04:24;98581.20;;;7.91;52.32
86272;BME280;76930;50.692;16.628;2024-03-06T13:06:51;98587.81;;;7.90;52.00
86272;BME280;76930;50.692;16.628;2024-03-06T13:09:18;98586.48;;;7.89;52.06
86272;BME280;76930;50.692;16.628;2024-03-06T13:11:45;98589.94;;;7.88;52.19
86272;BME280;76930;50.692;16.628;2024-03-06T13:14:13;98592.18;;;7.83;52.44
86272;BME280;76930;50.692;16.628;2024-03-06T13:16:40;98601.23;;;7.73;52.80
86272;BME280;76930;50.692;16.628;2024-03-06T13:19:07;98604.25;;;7.58;53.19
86272;BME280;76930;50.692;16.628;2024-03-06T13:21:35;98603.29;;;7.46;53.58
86272;BME280;76930;50.692;16.628;2024-03-06T13:24:02;98606.69;;;7.35;54.03
86272;BME280;76930;50.692;16.628;2024-03-06T13:26:31;98607.06;;;7.25;54.27
86272;BME280;76930;50.692;16.628;2024-03-06T13:28:58;98603.82;;;7.17;54.82